sensor_id;sensor_type;location;lat;lon;timestamp;temperature;humidity
6758;DHT22;3416;53.074;8.822;2023-12-07T00:02:07;3.60;99.90
6758;DHT22;3416;53.074;8.822;2023-12-07T00:04:46;3.70;99.90
6758;DHT22;3416;53.074;8.822;2023-12-07T00:07:21;3.70;99.90
6758;DHT22;3416;53.074;8.822;2023-12-07T00:09:54;3.60;99.90
6758;DHT22;3416;53.074;8.822;2023-12-07T00:12:39;3.60;99.90
6758;DHT22;3416;53.074;8.822;2023-12-07T00:15:10;3.50;99.90
6758;DHT22;3416;53.074;8.822;2023-12-07T00:17:43;3.40;99.90
6758;DHT22;3416;53.074;8.822;2023-12-07T00:20:26;3.60;99.90
6758;DHT22;3416;53.074;8.822;2023-12-07T00:23:11;3.60;99.90
6758;DHT22;3416;53.074;8.822;2023-12-07T00:25:55;3.60;99.90
6758;DHT22;3416;53.074;8.822;2023-12-07T00:28:57;3.60;99.90
6758;DHT22;3416;53.074;8.822;2023-12-07T00:31:38;3.50;99.90
6758;DHT22;3416;53.074;8.822;2023-12-07T00:34:25;3.50;99.90
6758;DHT22;3416;53.074;8.822;2023-12-07T00:37:40;3.60;99.90
6758;DHT22;3416;53.074;8.822;2023-12-07T00:40:30;3.70;99.90
6758;DHT22;3416;53.074;8.822;2023-12-07T00:43:22;3.80;99.90
6758;DHT22;3416;53.074;8.822;2023-12-07T00:46:25;3.80;99.90
6758;DHT22;3416;53.074;8.822;2023-12-07T00:48:53;3.90;99.90
6758;DHT22;3416;53.074;8.822;2023-12-07T00:51:23;4.00;99.90
6758;DHT22;3416;53.074;8.822;2023-12-07T00:53:54;3.80;99.90
6758;DHT22;3416;53.074;8.822;2023-12-07T00:56:26;3.80;99.90
6758;DHT22;3416;53.074;8.822;2023-12-07T00:59:03;3.50;99.90
6758;DHT22;3416;53.074;8.822;2023-12-07T01:01:35;3.70;99.90
6758;DHT22;3416;53.074;8.822;2023-12-07T01:04:04;3.60;99.90
6758;DHT22;3416;53.074;8.822;2023-12-07T01:06:32;3.70;99.90
6758;DHT22;3416;53.074;8.822;2023-12-07T01:08:59;3.70;99.90
6758;DHT22;3416;53.074;8.822;2023-12-07T01:11:26;3.80;99.90
6758;DHT22;3416;53.074;8.822;2023-12-07T01:13:53;3.70;99.90
6758;DHT22;3416;53.074;8.822;2023-12-07T01:16:20;3.60;99.90
6758;DHT22;3416;53.074;8.822;2023-12-07T01:18:48;3.60;99.90
6758;DHT22;3416;53.074;8.822;2023-12-07T01:21:15;3.60;99.90
6758;DHT22;3416;53.074;8.822;2023-12-07T01:23:42;3.60;99.90
6758;DHT22;3416;53.074;8.822;2023-12-07T01:26:09;3.70;99.90
6758;DHT22;3416;53.074;8.822;2023-12-07T01:28:36;3.50;99.90
6758;DHT22;3416;53.074;8.822;2023-12-07T01:31:04;3.70;99.90
6758;DHT22;3416;53.074;8.822;2023-12-07T01:33:31;3.70;99.90
6758;DHT22;3416;53.074;8.822;2023-12-07T01:35:59;3.80;99.90
6758;DHT22;3416;53.074;8.822;2023-12-07T01:38:27;3.80;99.90
6758;DHT22;3416;53.074;8.822;2023-12-07T01:40:54;3.80;99.90
6758;DHT22;3416;53.074;8.822;2023-12-07T01:43:22;3.80;99.90
6758;DHT22;3416;53.074;8.822;2023-12-07T01:45:50;3.80;99.90
6758;DHT22;3416;53.074;8.822;2023-12-07T01:48:21;3.60;99.90
6758;DHT22;3416;53.074;8.822;2023-12-07T01:50:52;3.60;99.90
6758;DHT22;3416;53.074;8.822;2023-12-07T01:53:23;3.60;99.90
6758;DHT22;3416;53.074;8.822;2023-12-07T01:55:51;3.60;99.90
6758;DHT22;3416;53.074;8.822;2023-12-07T01:58:20;3.60;99.90
6758;DHT22;3416;53.074;8.822;2023-12-07T02:00:48;3.60;99.90
6758;DHT22;3416;53.074;8.822;2023-12-07T02:03:17;3.70;99.90
6758;DHT22;3416;53.074;8.822;2023-12-07T02:05:48;3.60;99.90
6758;DHT22;3416;53.074;8.822;2023-12-07T02:08:15;3.60;99.90
6758;DHT22;3416;53.074;8.822;2023-12-07T02:10:43;3.70;99.90
6758;DHT22;3416;53.074;8.822;2023-12-07T02:13:11;3.80;99.90
6758;DHT22;3416;53.074;8.822;2023-12-07T02:15:39;3.70;99.90
6758;DHT22;3416;53.074;8.822;2023-12-07T02:18:10;3.80;99.90
6758;DHT22;3416;53.074;8.822;2023-12-07T02:20:41;3.90;99.90
6758;DHT22;3416;53.074;8.822;2023-12-07T02:23:11;3.80;99.90
6758;DHT22;3416;53.074;8.822;2023-12-07T02:28:57;3.70;99.90
6758;DHT22;3416;53.074;8.822;2023-12-07T02:31:24;3.80;99.90
6758;DHT22;3416;53.074;8.822;2023-12-07T02:33:54;3.80;99.90
6758;DHT22;3416;53.074;8.822;2023-12-07T02:36:24;3.70;99.90
6758;DHT22;3416;53.074;8.822;2023-12-07T02:38:51;3.70;99.90
6758;DHT22;3416;53.074;8.822;2023-12-07T02:41:23;3.80;99.90
6758;DHT22;3416;53.074;8.822;2023-12-07T02:43:51;3.90;99.90
6758;DHT22;3416;53.074;8.822;2023-12-07T02:46:19;3.80;99.90
6758;DHT22;3416;53.074;8.822;2023-12-07T02:48:46;3.90;99.90
6758;DHT22;3416;53.074;8.822;2023-12-07T02:51:13;3.80;99.90
6758;DHT22;3416;53.074;8.822;2023-12-07T02:53:40;3.90;99.90
6758;DHT22;3416;53.074;8.822;2023-12-07T02:56:08;3.90;99.90
6758;DHT22;3416;53.074;8.822;2023-12-07T02:58:35;3.90;99.90
6758;DHT22;3416;53.074;8.822;2023-12-07T03:01:05;3.90;99.90
6758;DHT22;3416;53.074;8.822;2023-12-07T03:03:33;3.80;99.90
6758;DHT22;3416;53.074;8.822;2023-12-07T03:06:00;3.70;99.90
6758;DHT22;3416;53.074;8.822;2023-12-07T03:08:27;3.70;99.90
6758;DHT22;3416;53.074;8.822;2023-12-07T03:10:55;3.70;99.90
6758;DHT22;3416;53.074;8.822;2023-12-07T03:13:22;3.70;99.90
6758;DHT22;3416;53.074;8.822;2023-12-07T03:15:49;3.80;99.90
6758;DHT22;3416;53.074;8.822;2023-12-07T03:18:19;3.80;99.90
6758;DHT22;3416;53.074;8.822;2023-12-07T03:20:51;3.80;99.90
6758;DHT22;3416;53.074;8.822;2023-12-07T03:23:21;3.80;99.90
6758;DHT22;3416;53.074;8.822;2023-12-07T03:25:51;3.80;99.90
6758;DHT22;3416;53.074;8.822;2023-12-07T03:28:25;3.90;99.90
6758;DHT22;3416;53.074;8.822;2023-12-07T03:30:58;3.70;99.90
6758;DHT22;3416;53.074;8.822;2023-12-07T03:33:35;3.70;99.90
6758;DHT22;3416;53.074;8.822;2023-12-07T03:36:18;3.90;99.90
6758;DHT22;3416;53.074;8.822;2023-12-07T03:39:15;3.70;99.90
6758;DHT22;3416;53.074;8.822;2023-12-07T03:41:51;3.70;99.90
6758;DHT22;3416;53.074;8.822;2023-12-07T03:44:32;3.70;99.90
6758;DHT22;3416;53.074;8.822;2023-12-07T03:47:14;3.70;99.90
6758;DHT22;3416;53.074;8.822;2023-12-07T03:49:52;3.70;99.90
6758;DHT22;3416;53.074;8.822;2023-12-07T03:52:37;3.60;99.90
6758;DHT22;3416;53.074;8.822;2023-12-07T03:55:29;3.80;99.90
6758;DHT22;3416;53.074;8.822;2023-12-07T03:58:08;3.80;99.90
6758;DHT22;3416;53.074;8.822;2023-12-07T04:00:44;3.70;99.90
6758;DHT22;3416;53.074;8.822;2023-12-07T04:03:18;3.80;99.90
6758;DHT22;3416;53.074;8.822;2023-12-07T04:05:49;3.70;99.90
6758;DHT22;3416;53.074;8.822;2023-12-07T04:08:25;3.70;99.90
6758;DHT22;3416;53.074;8.822;2023-12-07T04:10:53;3.70;99.90
6758;DHT22;3416;53.074;8.822;2023-12-07T04:13:20;3.70;99.90
6758;DHT22;3416;53.074;8.822;2023-12-07T04:15:47;3.90;99.90
6758;DHT22;3416;53.074;8.822;2023-12-07T04:18:15;4.00;99.90
6758;DHT22;3416;53.074;8.822;2023-12-07T04:20:42;4.00;99.90
6758;DHT22;3416;53.074;8.822;2023-12-07T04:23:09;4.00;99.90
6758;DHT22;3416;53.074;8.822;2023-12-07T04:25:37;3.90;99.90
6758;DHT22;3416;53.074;8.822;2023-12-07T04:28:04;3.90;99.90
6758;DHT22;3416;53.074;8.822;2023-12-07T04:30:31;3.90;99.90
6758;DHT22;3416;53.074;8.822;2023-12-07T04:32:58;4.00;99.90
6758;DHT22;3416;53.074;8.822;2023-12-07T04:35:25;3.90;99.90
6758;DHT22;3416;53.074;8.822;2023-12-07T04:37:54;3.90;99.90
6758;DHT22;3416;53.074;8.822;2023-12-07T04:40:24;3.70;99.90
6758;DHT22;3416;53.074;8.822;2023-12-07T04:42:56;3.80;99.90
6758;DHT22;3416;53.074;8.822;2023-12-07T04:45:27;3.90;99.90
6758;DHT22;3416;53.074;8.822;2023-12-07T04:47:54;3.90;99.90
6758;DHT22;3416;53.074;8.822;2023-12-07T04:50:22;3.80;99.90
6758;DHT22;3416;53.074;8.822;2023-12-07T04:52:49;4.20;99.90
6758;DHT22;3416;53.074;8.822;2023-12-07T04:55:16;4.10;99.90
6758;DHT22;3416;53.074;8.822;2023-12-07T04:57:44;4.00;99.90
6758;DHT22;3416;53.074;8.822;2023-12-07T05:00:13;3.90;99.90
6758;DHT22;3416;53.074;8.822;2023-12-07T05:02:44;4.00;99.90
6758;DHT22;3416;53.074;8.822;2023-12-07T05:05:17;3.90;99.90
6758;DHT22;3416;53.074;8.822;2023-12-07T05:07:44;3.90;99.90
6758;DHT22;3416;53.074;8.822;2023-12-07T05:10:19;3.80;99.90
6758;DHT22;3416;53.074;8.822;2023-12-07T05:12:50;3.80;99.90
6758;DHT22;3416;53.074;8.822;2023-12-07T05:15:24;3.80;99.90
6758;DHT22;3416;53.074;8.822;2023-12-07T05:17:53;3.80;99.90
6758;DHT22;3416;53.074;8.822;2023-12-07T05:20:44;3.80;99.90
6758;DHT22;3416;53.074;8.822;2023-12-07T05:23:12;3.80;99.90
6758;DHT22;3416;53.074;8.822;2023-12-07T05:25:44;3.70;99.90
6758;DHT22;3416;53.074;8.822;2023-12-07T05:28:28;3.60;99.90
6758;DHT22;3416;53.074;8.822;2023-12-07T05:31:17;3.80;99.90
6758;DHT22;3416;53.074;8.822;2023-12-07T05:33:46;3.80;99.90
6758;DHT22;3416;53.074;8.822;2023-12-07T05:36:19;3.90;99.90
6758;DHT22;3416;53.074;8.822;2023-12-07T05:39:02;3.80;99.90
6758;DHT22;3416;53.074;8.822;2023-12-07T05:41:34;3.70;99.90
6758;DHT22;3416;53.074;8.822;2023-12-07T05:44:04;3.80;99.90
6758;DHT22;3416;53.074;8.822;2023-12-07T05:46:39;3.80;99.90
6758;DHT22;3416;53.074;8.822;2023-12-07T05:49:10;3.70;99.90
6758;DHT22;3416;53.074;8.822;2023-12-07T05:51:42;3.70;99.90
6758;DHT22;3416;53.074;8.822;2023-12-07T05:54:17;3.60;99.90
6758;DHT22;3416;53.074;8.822;2023-12-07T05:56:54;3.70;99.90
6758;DHT22;3416;53.074;8.822;2023-12-07T05:59:23;3.70;99.90
6758;DHT22;3416;53.074;8.822;2023-12-07T06:01:58;3.70;99.90
6758;DHT22;3416;53.074;8.822;2023-12-07T06:04:39;3.80;99.90
6758;DHT22;3416;53.074;8.822;2023-12-07T06:07:10;3.70;99.90
6758;DHT22;3416;53.074;8.822;2023-12-07T06:09:50;3.80;99.90
6758;DHT22;3416;53.074;8.822;2023-12-07T06:12:54;3.70;99.90
6758;DHT22;3416;53.074;8.822;2023-12-07T06:15:32;3.80;99.90
6758;DHT22;3416;53.074;8.822;2023-12-07T06:18:25;3.90;99.90
6758;DHT22;3416;53.074;8.822;2023-12-07T06:20:53;3.90;99.90
6758;DHT22;3416;53.074;8.822;2023-12-07T06:23:20;3.80;99.90
6758;DHT22;3416;53.074;8.822;2023-12-07T06:25:47;3.80;99.90
6758;DHT22;3416;53.074;8.822;2023-12-07T06:28:15;3.80;99.90
6758;DHT22;3416;53.074;8.822;2023-12-07T06:30:42;3.80;99.90
6758;DHT22;3416;53.074;8.822;2023-12-07T06:33:09;3.80;99.90
6758;DHT22;3416;53.074;8.822;2023-12-07T06:35:37;3.80;99.90
6758;DHT22;3416;53.074;8.822;2023-12-07T06:38:04;3.70;99.90
6758;DHT22;3416;53.074;8.822;2023-12-07T06:40:33;3.70;99.90
6758;DHT22;3416;53.074;8.822;2023-12-07T06:43:00;3.70;99.90
6758;DHT22;3416;53.074;8.822;2023-12-07T06:45:27;3.70;99.90
6758;DHT22;3416;53.074;8.822;2023-12-07T06:57:39;3.60;99.90
6758;DHT22;3416;53.074;8.822;2023-12-07T07:00:07;3.60;99.90
6758;DHT22;3416;53.074;8.822;2023-12-07T07:02:36;3.60;99.90
6758;DHT22;3416;53.074;8.822;2023-12-07T07:05:04;3.60;99.90
6758;DHT22;3416;53.074;8.822;2023-12-07T07:07:31;3.60;99.90
6758;DHT22;3416;53.074;8.822;2023-12-07T07:09:58;3.70;99.90
6758;DHT22;3416;53.074;8.822;2023-12-07T07:12:26;3.70;99.90
6758;DHT22;3416;53.074;8.822;2023-12-07T07:14:56;3.70;99.90
6758;DHT22;3416;53.074;8.822;2023-12-07T07:17:23;3.70;99.90
6758;DHT22;3416;53.074;8.822;2023-12-07T07:19:50;3.80;99.90
6758;DHT22;3416;53.074;8.822;2023-12-07T07:22:17;3.90;99.90
6758;DHT22;3416;53.074;8.822;2023-12-07T07:24:44;4.00;99.90
6758;DHT22;3416;53.074;8.822;2023-12-07T07:27:11;4.00;99.90
6758;DHT22;3416;53.074;8.822;2023-12-07T07:29:38;4.10;99.90
6758;DHT22;3416;53.074;8.822;2023-12-07T07:32:07;4.10;99.90
6758;DHT22;3416;53.074;8.822;2023-12-07T07:34:33;4.10;99.90
6758;DHT22;3416;53.074;8.822;2023-12-07T07:37:00;4.20;99.90
6758;DHT22;3416;53.074;8.822;2023-12-07T07:39:28;4.10;99.90
6758;DHT22;3416;53.074;8.822;2023-12-07T07:41:55;4.10;99.90
6758;DHT22;3416;53.074;8.822;2023-12-07T07:44:22;4.20;99.90
6758;DHT22;3416;53.074;8.822;2023-12-07T07:46:49;4.10;99.90
6758;DHT22;3416;53.074;8.822;2023-12-07T07:49:17;4.10;99.90
6758;DHT22;3416;53.074;8.822;2023-12-07T07:51:44;4.10;99.90
6758;DHT22;3416;53.074;8.822;2023-12-07T07:54:11;4.20;99.90
6758;DHT22;3416;53.074;8.822;2023-12-07T07:56:38;4.20;99.90
6758;DHT22;3416;53.074;8.822;2023-12-07T07:59:05;4.30;99.90
6758;DHT22;3416;53.074;8.822;2023-12-07T08:01:32;4.30;99.90
6758;DHT22;3416;53.074;8.822;2023-12-07T08:03:59;4.20;99.90
6758;DHT22;3416;53.074;8.822;2023-12-07T08:06:27;4.20;99.90
6758;DHT22;3416;53.074;8.822;2023-12-07T08:08:54;4.20;99.90
6758;DHT22;3416;53.074;8.822;2023-12-07T08:11:21;4.20;99.90
6758;DHT22;3416;53.074;8.822;2023-12-07T08:13:48;4.30;99.90
6758;DHT22;3416;53.074;8.822;2023-12-07T08:16:16;4.40;99.90
6758;DHT22;3416;53.074;8.822;2023-12-07T08:18:44;4.40;99.90
6758;DHT22;3416;53.074;8.822;2023-12-07T08:21:19;4.40;99.90
6758;DHT22;3416;53.074;8.822;2023-12-07T08:23:47;4.40;99.90
6758;DHT22;3416;53.074;8.822;2023-12-07T08:26:14;4.30;99.90
6758;DHT22;3416;53.074;8.822;2023-12-07T08:28:42;4.40;99.90
6758;DHT22;3416;53.074;8.822;2023-12-07T08:31:09;4.40;99.90
6758;DHT22;3416;53.074;8.822;2023-12-07T08:33:38;4.30;99.90
6758;DHT22;3416;53.074;8.822;2023-12-07T08:36:07;4.30;99.90
6758;DHT22;3416;53.074;8.822;2023-12-07T08:38:35;4.40;99.90
6758;DHT22;3416;53.074;8.822;2023-12-07T08:41:03;4.50;99.90
6758;DHT22;3416;53.074;8.822;2023-12-07T08:43:30;4.20;99.90
6758;DHT22;3416;53.074;8.822;2023-12-07T08:45:57;4.30;99.90
6758;DHT22;3416;53.074;8.822;2023-12-07T08:48:24;4.30;99.90
6758;DHT22;3416;53.074;8.822;2023-12-07T08:50:51;4.30;99.90
6758;DHT22;3416;53.074;8.822;2023-12-07T08:53:18;4.40;99.90
6758;DHT22;3416;53.074;8.822;2023-12-07T08:55:45;4.40;99.90
6758;DHT22;3416;53.074;8.822;2023-12-07T08:58:14;4.40;99.90
6758;DHT22;3416;53.074;8.822;2023-12-07T09:00:40;4.30;99.90
6758;DHT22;3416;53.074;8.822;2023-12-07T09:03:07;4.30;99.90
6758;DHT22;3416;53.074;8.822;2023-12-07T09:05:34;4.40;99.90
6758;DHT22;3416;53.074;8.822;2023-12-07T09:08:22;4.30;99.90
6758;DHT22;3416;53.074;8.822;2023-12-07T09:10:49;4.30;99.90
6758;DHT22;3416;53.074;8.822;2023-12-07T09:13:18;4.20;99.90
6758;DHT22;3416;53.074;8.822;2023-12-07T09:15:45;4.20;99.90
6758;DHT22;3416;53.074;8.822;2023-12-07T09:18:12;4.10;99.90
6758;DHT22;3416;53.074;8.822;2023-12-07T09:20:39;4.10;99.90
6758;DHT22;3416;53.074;8.822;2023-12-07T09:23:11;4.10;99.90
6758;DHT22;3416;53.074;8.822;2023-12-07T09:25:38;4.00;99.90
6758;DHT22;3416;53.074;8.822;2023-12-07T09:28:06;3.90;99.90
6758;DHT22;3416;53.074;8.822;2023-12-07T09:30:35;3.90;99.90
6758;DHT22;3416;53.074;8.822;2023-12-07T09:33:02;4.00;99.90
6758;DHT22;3416;53.074;8.822;2023-12-07T09:35:29;3.90;99.90
6758;DHT22;3416;53.074;8.822;2023-12-07T09:37:57;4.00;99.90
6758;DHT22;3416;53.074;8.822;2023-12-07T09:40:24;4.10;99.90
6758;DHT22;3416;53.074;8.822;2023-12-07T09:42:53;4.20;99.90
6758;DHT22;3416;53.074;8.822;2023-12-07T09:45:20;4.20;99.90
6758;DHT22;3416;53.074;8.822;2023-12-07T09:47:50;4.20;99.90
6758;DHT22;3416;53.074;8.822;2023-12-07T09:50:18;4.20;99.90
6758;DHT22;3416;53.074;8.822;2023-12-07T09:52:47;4.30;99.90
6758;DHT22;3416;53.074;8.822;2023-12-07T09:55:16;4.30;99.90
6758;DHT22;3416;53.074;8.822;2023-12-07T09:57:43;4.30;99.90
6758;DHT22;3416;53.074;8.822;2023-12-07T10:00:11;4.30;99.90
6758;DHT22;3416;53.074;8.822;2023-12-07T10:02:41;4.30;99.90
6758;DHT22;3416;53.074;8.822;2023-12-07T10:05:11;4.30;99.90
6758;DHT22;3416;53.074;8.822;2023-12-07T10:07:40;4.40;99.90
6758;DHT22;3416;53.074;8.822;2023-12-07T10:10:08;4.30;99.90
6758;DHT22;3416;53.074;8.822;2023-12-07T10:12:44;4.40;99.90
6758;DHT22;3416;53.074;8.822;2023-12-07T10:15:13;4.40;99.90
6758;DHT22;3416;53.074;8.822;2023-12-07T10:17:48;4.40;99.90
6758;DHT22;3416;53.074;8.822;2023-12-07T10:20:18;4.30;99.90
6758;DHT22;3416;53.074;8.822;2023-12-07T10:22:46;4.40;99.90
6758;DHT22;3416;53.074;8.822;2023-12-07T10:25:13;4.50;99.90
6758;DHT22;3416;53.074;8.822;2023-12-07T10:27:41;4.50;99.90
6758;DHT22;3416;53.074;8.822;2023-12-07T10:30:10;4.50;99.90
6758;DHT22;3416;53.074;8.822;2023-12-07T10:32:37;4.50;99.90
6758;DHT22;3416;53.074;8.822;2023-12-07T10:35:07;4.60;99.90
6758;DHT22;3416;53.074;8.822;2023-12-07T10:37:36;4.60;99.90
6758;DHT22;3416;53.074;8.822;2023-12-07T10:40:05;4.60;99.90
6758;DHT22;3416;53.074;8.822;2023-12-07T10:42:33;4.70;99.90
6758;DHT22;3416;53.074;8.822;2023-12-07T10:45:04;4.80;99.90
6758;DHT22;3416;53.074;8.822;2023-12-07T10:47:35;4.80;99.90
6758;DHT22;3416;53.074;8.822;2023-12-07T10:50:05;4.80;99.90
6758;DHT22;3416;53.074;8.822;2023-12-07T10:52:42;4.90;99.90
6758;DHT22;3416;53.074;8.822;2023-12-07T10:55:15;5.10;99.90
6758;DHT22;3416;53.074;8.822;2023-12-07T10:57:44;5.20;99.90
6758;DHT22;3416;53.074;8.822;2023-12-07T11:00:12;5.30;99.90
6758;DHT22;3416;53.074;8.822;2023-12-07T11:02:40;5.30;99.90
6758;DHT22;3416;53.074;8.822;2023-12-07T11:05:09;5.40;99.90
6758;DHT22;3416;53.074;8.822;2023-12-07T11:07:46;5.40;99.90
6758;DHT22;3416;53.074;8.822;2023-12-07T11:10:20;5.50;99.90
6758;DHT22;3416;53.074;8.822;2023-12-07T11:12:56;5.60;99.90
6758;DHT22;3416;53.074;8.822;2023-12-07T11:15:26;5.60;99.90
6758;DHT22;3416;53.074;8.822;2023-12-07T11:17:55;5.70;99.90
6758;DHT22;3416;53.074;8.822;2023-12-07T11:20:32;5.60;99.90
6758;DHT22;3416;53.074;8.822;2023-12-07T11:23:07;5.60;99.90
6758;DHT22;3416;53.074;8.822;2023-12-07T11:25:34;5.50;99.90
6758;DHT22;3416;53.074;8.822;2023-12-07T11:28:01;5.60;99.90
6758;DHT22;3416;53.074;8.822;2023-12-07T11:30:33;5.50;99.90
6758;DHT22;3416;53.074;8.822;2023-12-07T11:33:03;5.60;99.90
6758;DHT22;3416;53.074;8.822;2023-12-07T11:35:31;5.60;99.90
6758;DHT22;3416;53.074;8.822;2023-12-07T11:38:05;5.60;99.90
6758;DHT22;3416;53.074;8.822;2023-12-07T11:40:35;5.60;99.90
6758;DHT22;3416;53.074;8.822;2023-12-07T11:43:02;5.70;99.90
6758;DHT22;3416;53.074;8.822;2023-12-07T11:45:40;5.60;99.90
6758;DHT22;3416;53.074;8.822;2023-12-07T11:48:13;5.60;99.90
6758;DHT22;3416;53.074;8.822;2023-12-07T11:50:58;5.70;99.90
6758;DHT22;3416;53.074;8.822;2023-12-07T11:53:26;5.60;99.90
6758;DHT22;3416;53.074;8.822;2023-12-07T11:55:57;5.60;99.90
6758;DHT22;3416;53.074;8.822;2023-12-07T11:58:25;5.70;99.90
6758;DHT22;3416;53.074;8.822;2023-12-07T12:00:53;5.80;99.90
6758;DHT22;3416;53.074;8.822;2023-12-07T12:03:22;5.90;99.90
6758;DHT22;3416;53.074;8.822;2023-12-07T12:05:50;5.90;99.90
6758;DHT22;3416;53.074;8.822;2023-12-07T12:08:19;5.80;99.90
6758;DHT22;3416;53.074;8.822;2023-12-07T12:10:47;5.70;99.90
6758;DHT22;3416;53.074;8.822;2023-12-07T12:13:17;5.80;99.90
6758;DHT22;3416;53.074;8.822;2023-12-07T12:15:45;5.80;99.90
6758;DHT22;3416;53.074;8.822;2023-12-07T12:18:13;5.80;99.90
6758;DHT22;3416;53.074;8.822;2023-12-07T12:20:50;5.80;99.90
6758;DHT22;3416;53.074;8.822;2023-12-07T12:23:18;5.90;99.90
6758;DHT22;3416;53.074;8.822;2023-12-07T12:25:45;5.80;99.90
6758;DHT22;3416;53.074;8.822;2023-12-07T12:28:17;5.80;99.90
6758;DHT22;3416;53.074;8.822;2023-12-07T12:30:45;5.70;99.90
6758;DHT22;3416;53.074;8.822;2023-12-07T12:33:13;5.80;99.90
6758;DHT22;3416;53.074;8.822;2023-12-07T12:35:40;5.70;99.90
6758;DHT22;3416;53.074;8.822;2023-12-07T12:38:09;5.70;99.90
6758;DHT22;3416;53.074;8.822;2023-12-07T12:40:37;5.60;99.90
6758;DHT22;3416;53.074;8.822;2023-12-07T12:43:04;5.70;99.90
6758;DHT22;3416;53.074;8.822;2023-12-07T12:45:33;5.80;99.90
6758;DHT22;3416;53.074;8.822;2023-12-07T12:48:00;5.60;99.90
6758;DHT22;3416;53.074;8.822;2023-12-07T12:50:36;5.70;99.90
6758;DHT22;3416;53.074;8.822;2023-12-07T12:53:05;5.80;99.90
6758;DHT22;3416;53.074;8.822;2023-12-07T12:55:33;5.90;99.90
6758;DHT22;3416;53.074;8.822;2023-12-07T12:58:01;5.80;99.90
6758;DHT22;3416;53.074;8.822;2023-12-07T13:00:30;5.80;99.90
6758;DHT22;3416;53.074;8.822;2023-12-07T13:02:59;5.70;99.90
6758;DHT22;3416;53.074;8.822;2023-12-07T13:05:26;5.60;99.90
6758;DHT22;3416;53.074;8.822;2023-12-07T13:07:55;5.60;99.90
6758;DHT22;3416;53.074;8.822;2023-12-07T13:10:22;5.40;99.90
6758;DHT22;3416;53.074;8.822;2023-12-07T13:12:49;5.40;99.90
6758;DHT22;3416;53.074;8.822;2023-12-07T13:15:16;5.30;99.90
6758;DHT22;3416;53.074;8.822;2023-12-07T13:17:43;5.30;99.90
6758;DHT22;3416;53.074;8.822;2023-12-07T13:20:12;5.30;99.90
6758;DHT22;3416;53.074;8.822;2023-12-07T13:22:40;5.20;99.90
6758;DHT22;3416;53.074;8.822;2023-12-07T13:25:09;5.20;99.90
6758;DHT22;3416;53.074;8.822;2023-12-07T13:27:36;5.30;99.90
6758;DHT22;3416;53.074;8.822;2023-12-07T13:30:04;5.30;99.90
6758;DHT22;3416;53.074;8.822;2023-12-07T13:32:32;5.20;99.90
6758;DHT22;3416;53.074;8.822;2023-12-07T13:34:59;5.30;99.90
6758;DHT22;3416;53.074;8.822;2023-12-07T13:37:28;5.50;99.90
6758;DHT22;3416;53.074;8.822;2023-12-07T13:39:54;5.40;99.90
6758;DHT22;3416;53.074;8.822;2023-12-07T13:42:24;5.40;99.90
6758;DHT22;3416;53.074;8.822;2023-12-07T13:44:53;5.30;99.90
6758;DHT22;3416;53.074;8.822;2023-12-07T13:47:22;5.20;99.90
6758;DHT22;3416;53.074;8.822;2023-12-07T13:49:54;5.20;99.90
6758;DHT22;3416;53.074;8.822;2023-12-07T13:52:21;5.20;99.90
6758;DHT22;3416;53.074;8.822;2023-12-07T13:54:50;5.20;99.90
6758;DHT22;3416;53.074;8.822;2023-12-07T13:57:18;5.20;99.90
6758;DHT22;3416;53.074;8.822;2023-12-07T13:59:45;5.10;99.90
6758;DHT22;3416;53.074;8.822;2023-12-07T14:02:12;5.10;99.90
6758;DHT22;3416;53.074;8.822;2023-12-07T14:04:40;5.30;99.90
6758;DHT22;3416;53.074;8.822;2023-12-07T14:07:08;5.30;99.90
6758;DHT22;3416;53.074;8.822;2023-12-07T14:09:35;5.30;99.90
6758;DHT22;3416;53.074;8.822;2023-12-07T14:12:05;5.40;99.90
6758;DHT22;3416;53.074;8.822;2023-12-07T14:14:32;5.50;99.90
6758;DHT22;3416;53.074;8.822;2023-12-07T14:16:59;5.40;99.90
6758;DHT22;3416;53.074;8.822;2023-12-07T14:19:26;5.40;99.90
6758;DHT22;3416;53.074;8.822;2023-12-07T14:21:54;5.30;99.90
6758;DHT22;3416;53.074;8.822;2023-12-07T14:24:23;5.30;99.90
6758;DHT22;3416;53.074;8.822;2023-12-07T14:26:50;5.40;99.90
6758;DHT22;3416;53.074;8.822;2023-12-07T14:29:18;5.40;99.90
6758;DHT22;3416;53.074;8.822;2023-12-07T14:31:47;5.30;99.90
6758;DHT22;3416;53.074;8.822;2023-12-07T14:34:14;5.20;99.90
6758;DHT22;3416;53.074;8.822;2023-12-07T14:36:42;5.20;99.90
6758;DHT22;3416;53.074;8.822;2023-12-07T14:39:10;5.20;99.90
6758;DHT22;3416;53.074;8.822;2023-12-07T14:41:43;5.30;99.90
6758;DHT22;3416;53.074;8.822;2023-12-07T14:44:10;5.20;99.90
6758;DHT22;3416;53.074;8.822;2023-12-07T14:46:38;5.10;99.90
6758;DHT22;3416;53.074;8.822;2023-12-07T14:49:07;5.10;99.90
6758;DHT22;3416;53.074;8.822;2023-12-07T14:51:34;5.00;99.90
6758;DHT22;3416;53.074;8.822;2023-12-07T14:54:01;5.00;99.90
6758;DHT22;3416;53.074;8.822;2023-12-07T14:56:28;4.90;99.90
6758;DHT22;3416;53.074;8.822;2023-12-07T14:58:54;4.90;99.90
6758;DHT22;3416;53.074;8.822;2023-12-07T15:01:23;4.80;99.90
6758;DHT22;3416;53.074;8.822;2023-12-07T15:03:52;4.90;99.90
6758;DHT22;3416;53.074;8.822;2023-12-07T15:06:19;4.90;99.90
6758;DHT22;3416;53.074;8.822;2023-12-07T15:08:47;4.90;99.90
6758;DHT22;3416;53.074;8.822;2023-12-07T15:11:14;4.90;99.90
6758;DHT22;3416;53.074;8.822;2023-12-07T15:13:42;4.90;99.90
6758;DHT22;3416;53.074;8.822;2023-12-07T15:16:09;4.90;99.90
6758;DHT22;3416;53.074;8.822;2023-12-07T15:18:36;4.90;99.90
6758;DHT22;3416;53.074;8.822;2023-12-07T15:21:06;5.00;99.90
6758;DHT22;3416;53.074;8.822;2023-12-07T15:23:33;5.00;99.90
6758;DHT22;3416;53.074;8.822;2023-12-07T15:26:00;4.90;99.90
6758;DHT22;3416;53.074;8.822;2023-12-07T15:28:29;4.90;99.90
6758;DHT22;3416;53.074;8.822;2023-12-07T15:30:55;4.90;99.90
6758;DHT22;3416;53.074;8.822;2023-12-07T15:33:23;5.00;99.90
6758;DHT22;3416;53.074;8.822;2023-12-07T15:35:49;5.00;99.90
6758;DHT22;3416;53.074;8.822;2023-12-07T15:38:18;5.00;99.90
6758;DHT22;3416;53.074;8.822;2023-12-07T15:40:45;4.90;99.90
6758;DHT22;3416;53.074;8.822;2023-12-07T15:43:12;4.80;99.90
6758;DHT22;3416;53.074;8.822;2023-12-07T15:45:38;4.80;99.90
6758;DHT22;3416;53.074;8.822;2023-12-07T15:48:05;4.80;99.90
6758;DHT22;3416;53.074;8.822;2023-12-07T15:50:32;4.70;99.90
6758;DHT22;3416;53.074;8.822;2023-12-07T15:52:59;4.50;99.90
6758;DHT22;3416;53.074;8.822;2023-12-07T15:55:29;4.40;99.90
6758;DHT22;3416;53.074;8.822;2023-12-07T15:57:56;4.30;99.90
6758;DHT22;3416;53.074;8.822;2023-12-07T16:00:23;4.30;99.90
6758;DHT22;3416;53.074;8.822;2023-12-07T16:02:50;4.30;99.90
6758;DHT22;3416;53.074;8.822;2023-12-07T16:05:18;4.30;99.90
6758;DHT22;3416;53.074;8.822;2023-12-07T16:07:45;4.30;99.90
6758;DHT22;3416;53.074;8.822;2023-12-07T16:10:12;4.30;99.90
6758;DHT22;3416;53.074;8.822;2023-12-07T16:12:41;4.30;99.90
6758;DHT22;3416;53.074;8.822;2023-12-07T16:15:08;4.20;99.90
6758;DHT22;3416;53.074;8.822;2023-12-07T16:17:35;4.10;99.90
6758;DHT22;3416;53.074;8.822;2023-12-07T16:20:02;4.00;99.90
6758;DHT22;3416;53.074;8.822;2023-12-07T16:22:29;3.90;99.90
6758;DHT22;3416;53.074;8.822;2023-12-07T16:24:56;3.90;99.90
6758;DHT22;3416;53.074;8.822;2023-12-07T16:27:25;3.90;99.90
6758;DHT22;3416;53.074;8.822;2023-12-07T16:29:53;3.80;99.90
6758;DHT22;3416;53.074;8.822;2023-12-07T16:32:20;3.90;99.90
6758;DHT22;3416;53.074;8.822;2023-12-07T16:34:47;4.00;99.90
6758;DHT22;3416;53.074;8.822;2023-12-07T16:37:14;3.90;99.90
6758;DHT22;3416;53.074;8.822;2023-12-07T16:39:42;3.80;99.90
6758;DHT22;3416;53.074;8.822;2023-12-07T16:42:10;3.70;99.90
6758;DHT22;3416;53.074;8.822;2023-12-07T16:44:37;3.60;99.90
6758;DHT22;3416;53.074;8.822;2023-12-07T16:47:06;3.60;99.90
6758;DHT22;3416;53.074;8.822;2023-12-07T16:49:33;3.60;99.90